Terminal Aerodrome Forecast
Issued by NWS Brownsville, TX

Home | Current Version | Previous Version | Text Only | Print | Product List | Glossary On
Versions: 1 2 3 4 5 6 7 8 9 10 11 12 13 14 15 16 17 18
000
FTUS44 KBRO 221100
TAFMFE
TAF
KMFE 221125Z 2212/2312 13010KT P6SM BKN040 OVC050
      TEMPO 2212/2215 -RA BKN025
     FM221700 14023G31KT P6SM BKN050
     FM230000 16016KT P6SM TSRA BKN035CB
      TEMPO 2301/2304 VRB40KT 2SM +TSRA BKN020CB
     FM230500 26005KT P6SM BKN120=

USA.gov is the U.S. government's official web portal to all federal, state and local government web resources and services.